Time;durP1;ratioP1;P1;durP2;ratioP2;P2;SDS_P1;SDS_P2;PMS_P1;PMS_P2;Temp;Humidity;BMP_temperature;BMP_pressure;BME280_temperature;BME280_humidity;BME280_pressure;Samples;Min_cycle;Max_cycle;Signal;HPM_P1;HPM_P2
2023/10/14 00:01:55;;;;;;;13.55;8.23;;;;;;;;;;5053677;28;20028;-75
2023/10/14 00:04:26;;;;;;;13.90;8.27;;;;;;;;;;5053841;28;20020;-75
2023/10/14 00:06:52;;;;;;;;;;;;;;;;;;5053983;28;20021;-75
2023/10/14 00:09:19;;;;;;;14.68;8.02;;;;;;;;;;5053762;28;19905;-75
2023/10/14 00:11:54;;;;;;;17.25;8.35;;;;;;;;;;5052539;28;20051;-75
2023/10/14 00:14:23;;;;;;;18.25;7.75;;;;;;;;;;5053800;28;20027;-75
2023/10/14 00:16:49;;;;;;;14.10;8.07;;;;;;;;;;5052990;28;20475;-75
2023/10/14 00:19:20;;;;;;;16.88;7.80;;;;;;;;;;5053510;28;20029;-75
2023/10/14 00:21:48;;;;;;;10.93;7.55;;;;;;;;;;5053387;28;20036;-75
2023/10/14 00:24:27;;;;;;;13.88;8.00;;;;;;;;;;5053272;28;20013;-75
2023/10/14 00:26:54;;;;;;;14.68;8.10;;;;;;;;;;5053265;28;20025;-74
2023/10/14 00:29:21;;;;;;;15.73;8.20;;;;;;;;;;5052947;28;20035;-75
2023/10/14 00:31:49;;;;;;;13.48;7.72;;;;;;;;;;5052692;28;20033;-75
2023/10/14 00:34:15;;;;;;;13.48;8.25;;;;;;;;;;5053376;28;20025;-75
2023/10/14 00:36:43;;;;;;;16.00;8.35;;;;;;;;;;5052961;28;20062;-75
2023/10/14 00:39:12;;;;;;;17.60;8.52;;;;;;;;;;5051815;28;20050;-75
2023/10/14 00:41:39;;;;;;;15.52;8.13;;;;;;;;;;5053005;28;20025;-75
2023/10/14 00:44:05;;;;;;;16.30;8.07;;;;;;;;;;5052936;28;20029;-75
2023/10/14 00:46:33;;;;;;;13.25;8.10;;;;;;;;;;5052598;28;20025;-75
2023/10/14 00:49:10;;;;;;;13.13;8.05;;;;;;;;;;5052853;28;20016;-75
2023/10/14 00:51:42;;;;;;;15.38;8.00;;;;;;;;;;5052762;28;20041;-75
2023/10/14 00:59:44;;;;;;;13.73;7.68;;;;;;;;;;5052344;28;20054;-75
2023/10/14 01:02:12;;;;;;;18.30;8.32;;;;;;;;;;5051171;28;20045;-75
2023/10/14 01:04:40;;;;;;;14.77;8.02;;;;;;;;;;5052621;28;20477;-75
2023/10/14 01:07:13;;;;;;;13.32;8.30;;;;;;;;;;5052622;28;20482;-75
2023/10/14 01:12:54;;;;;;;14.65;8.38;;;;;;;;;;5052633;28;20021;-75
2023/10/14 01:15:00;;;;;;;19.63;8.55;;;;;;;;;;5051679;28;20033;-75
2023/10/14 01:17:29;;;;;;;18.95;8.70;;;;;;;;;;5052764;28;20025;-75
2023/10/14 01:20:06;;;;;;;18.05;8.10;;;;;;;;;;5052803;28;20078;-75
2023/10/14 01:22:34;;;;;;;19.13;8.95;;;;;;;;;;5052469;28;20029;-75
2023/10/14 01:25:05;;;;;;;14.77;8.38;;;;;;;;;;5052358;28;20037;-75
2023/10/14 01:27:34;;;;;;;13.80;8.82;;;;;;;;;;5052104;28;20482;-75
2023/10/14 01:30:01;;;;;;;12.02;8.13;;;;;;;;;;5051901;28;20143;-75
2023/10/14 01:35:13;;;;;;;15.23;8.27;;;;;;;;;;5052291;28;20027;-75
2023/10/14 01:37:40;;;;;;;13.18;8.15;;;;;;;;;;5052362;28;20497;-75
2023/10/14 01:43:08;;;;;;;15.00;8.20;;;;;;;;;;5051266;28;20389;-75
2023/10/14 01:48:25;;;;;;;16.58;8.25;;;;;;;;;;5052180;28;20025;-75
2023/10/14 01:50:55;;;;;;;12.45;8.18;;;;;;;;;;5052114;28;20531;-75
2023/10/14 01:53:27;;;;;;;14.48;7.38;;;;;;;;;;5052091;28;20061;-75
2023/10/14 01:56:01;;;;;;;16.95;8.60;;;;;;;;;;5051917;28;20049;-75
2023/10/14 02:01:15;;;;;;;16.67;7.63;;;;;;;;;;5052140;28;20032;-75
2023/10/14 02:03:47;;;;;;;19.48;8.38;;;;;;;;;;5052352;28;20035;-75
2023/10/14 02:06:17;;;;;;;12.20;8.73;;;;;;;;;;5052235;28;20047;-75
2023/10/14 02:08:44;;;;;;;;;;;;;;;;;;5052449;28;20400;-75
2023/10/14 02:11:10;;;;;;;15.38;8.60;;;;;;;;;;5051937;28;19913;-75
2023/10/14 02:13:37;;;;;;;12.23;7.93;;;;;;;;;;5055036;28;20425;-75
2023/10/14 02:16:09;;;;;;;13.23;8.13;;;;;;;;;;5055725;28;20029;-75
2023/10/14 02:18:37;;;;;;;15.00;8.35;;;;;;;;;;5055838;28;20024;-75
2023/10/14 02:21:11;;;;;;;15.00;8.98;;;;;;;;;;5055618;28;20028;-75
2023/10/14 02:23:45;;;;;;;12.73;8.80;;;;;;;;;;5055541;28;20036;-75
2023/10/14 02:26:16;;;;;;;18.90;9.38;;;;;;;;;;5055572;28;20025;-75
2023/10/14 02:28:48;;;;;;;14.85;8.60;;;;;;;;;;5055223;28;20021;-75
2023/10/14 02:31:17;;;;;;;10.90;7.65;;;;;;;;;;5055386;28;20029;-75
2023/10/14 02:33:48;;;;;;;13.40;8.00;;;;;;;;;;5055442;28;20352;-75
2023/10/14 02:36:15;;;;;;;13.90;8.33;;;;;;;;;;5055292;28;20021;-75
2023/10/14 02:38:52;;;;;;;13.15;7.93;;;;;;;;;;5055365;28;20032;-75
2023/10/14 02:41:18;;;;;;;11.48;7.75;;;;;;;;;;5054900;28;20074;-75
2023/10/14 02:43:44;;;;;;;14.02;8.32;;;;;;;;;;5055208;28;20035;-75
2023/10/14 02:46:11;;;;;;;16.15;8.73;;;;;;;;;;5055348;28;20078;-75
2023/10/14 02:48:53;;;;;;;14.93;8.13;;;;;;;;;;5055078;28;20032;-75
2023/10/14 02:54:15;;;;;;;10.93;7.60;;;;;;;;;;5055292;28;20017;-75
2023/10/14 02:59:20;;;;;;;14.23;8.52;;;;;;;;;;5055250;28;20025;-75
2023/10/14 03:05:07;;;;;;;13.05;8.07;;;;;;;;;;5087129;28;20058;-75
2023/10/14 03:07:28;;;;;;;15.15;8.73;;;;;;;;;;5054538;28;20033;-75
2023/10/14 03:12:39;;;;;;;16.55;9.02;;;;;;;;;;5054949;28;20031;-75
2023/10/14 03:15:18;;;;;;;17.40;8.82;;;;;;;;;;5054635;28;20025;-75
2023/10/14 03:18:04;;;;;;;14.15;8.75;;;;;;;;;;5054454;28;20028;-75
2023/10/14 03:23:17;;;;;;;14.48;9.35;;;;;;;;;;5054406;28;20401;-75
2023/10/14 03:25:44;;;;;;;12.95;8.38;;;;;;;;;;5054092;28;20035;-75
2023/10/14 03:30:37;;;;;;;14.50;8.38;;;;;;;;;;5054240;28;20033;-75
2023/10/14 03:33:10;;;;;;;14.85;8.55;;;;;;;;;;5054525;28;20036;-75
2023/10/14 03:35:37;;;;;;;18.52;8.98;;;;;;;;;;5054431;28;20025;-75
2023/10/14 03:43:16;;;;;;;11.38;8.45;;;;;;;;;;5054100;28;20017;-75
2023/10/14 03:45:56;;;;;;;15.10;8.38;;;;;;;;;;5053969;28;20055;-75
2023/10/14 03:48:30;;;;;;;18.08;8.75;;;;;;;;;;5053933;28;20021;-75
2023/10/14 03:51:02;;;;;;;13.57;8.10;;;;;;;;;;5053835;28;20482;-75
2023/10/14 03:53:30;;;;;;;18.67;8.95;;;;;;;;;;5053525;28;20066;-75
2023/10/14 03:55:57;;;;;;;15.65;8.55;;;;;;;;;;5053597;28;20033;-75
2023/10/14 03:58:24;;;;;;;15.65;8.95;;;;;;;;;;5053709;28;20386;-75
2023/10/14 04:00:52;;;;;;;16.77;9.45;;;;;;;;;;5053904;28;20033;-75
2023/10/14 04:03:39;;;;;;;14.10;9.77;;;;;;;;;;5054000;28;20017;-75
2023/10/14 04:06:08;;;;;;;13.57;8.98;;;;;;;;;;5052343;28;20035;-75
2023/10/14 04:08:50;;;;;;;15.95;8.57;;;;;;;;;;5053372;28;20029;-75
2023/10/14 04:11:25;;;;;;;12.68;8.68;;;;;;;;;;5053533;28;20039;-75
2023/10/14 04:14:07;;;;;;;13.32;9.30;;;;;;;;;;5053467;28;20024;-75
2023/10/14 04:19:27;;;;;;;15.60;9.63;;;;;;;;;;5053349;28;20029;-75
2023/10/14 04:22:16;;;;;;;13.55;9.30;;;;;;;;;;5053542;28;20029;-75
2023/10/14 04:29:57;;;;;;;14.48;8.65;;;;;;;;;;5033168;28;20039;-75
2023/10/14 04:32:42;;;;;;;15.50;9.02;;;;;;;;;;5033295;28;20032;-75
2023/10/14 04:35:08;;;;;;;15.65;8.75;;;;;;;;;;5032659;28;20039;-75
2023/10/14 04:37:57;;;;;;;18.00;9.05;;;;;;;;;;5032585;28;20018;-75
2023/10/14 04:43:11;;;;;;;13.27;8.70;;;;;;;;;;5032998;28;20490;-75
2023/10/14 04:45:37;;;;;;;15.27;8.95;;;;;;;;;;5033108;28;20025;-75
2023/10/14 04:48:05;;;;;;;15.77;9.80;;;;;;;;;;5033090;28;20026;-75
2023/10/14 04:50:33;;;;;;;15.65;8.88;;;;;;;;;;5031639;28;20044;-75
2023/10/14 04:52:59;;;;;;;10.77;8.38;;;;;;;;;;5032583;28;20018;-75
2023/10/14 04:55:32;;;;;;;15.20;9.35;;;;;;;;;;5032819;28;20375;-75
2023/10/14 05:00:47;;;;;;;18.48;9.23;;;;;;;;;;5033105;28;20029;-75
2023/10/14 05:03:14;;;;;;;13.80;8.68;;;;;;;;;;5032789;28;20489;-75
2023/10/14 05:05:43;;;;;;;15.52;9.35;;;;;;;;;;5032786;28;20453;-75
2023/10/14 05:08:15;;;;;;;16.20;8.85;;;;;;;;;;5032632;28;20010;-75
2023/10/14 05:10:46;;;;;;;14.65;8.90;;;;;;;;;;5032791;28;20033;-75
2023/10/14 05:13:13;;;;;;;;;;;;;;;;;;5033364;28;20047;-75
2023/10/14 05:15:41;;;;;;;14.95;9.18;;;;;;;;;;5032645;28;19931;-75
2023/10/14 05:18:14;;;;;;;15.45;9.20;;;;;;;;;;5032530;28;20030;-75
2023/10/14 05:23:24;;;;;;;15.63;9.18;;;;;;;;;;5032643;28;20033;-75
2023/10/14 05:25:56;;;;;;;11.63;9.13;;;;;;;;;;5037598;28;20387;-75
2023/10/14 05:28:29;;;;;;;17.05;9.48;;;;;;;;;;5052599;28;20086;-75
2023/10/14 05:30:57;;;;;;;15.40;9.70;;;;;;;;;;5052135;28;20041;-75
2023/10/14 05:33:24;;;;;;;19.05;9.43;;;;;;;;;;5052362;28;20478;-75
2023/10/14 05:35:51;;;;;;;15.68;9.65;;;;;;;;;;5052332;28;20029;-75
2023/10/14 05:38:19;;;;;;;13.15;9.45;;;;;;;;;;5052268;28;20021;-75
2023/10/14 05:40:45;;;;;;;12.40;8.93;;;;;;;;;;5052575;28;20025;-75
2023/10/14 05:43:12;;;;;;;17.30;10.02;;;;;;;;;;5050865;28;20405;-75
2023/10/14 05:45:39;;;;;;;15.68;8.85;;;;;;;;;;5052337;28;20033;-75
2023/10/14 05:48:09;;;;;;;15.93;8.85;;;;;;;;;;5053727;28;20021;-75
2023/10/14 05:50:35;;;;;;;14.00;9.15;;;;;;;;;;5055977;28;20037;-75
2023/10/14 05:53:02;;;;;;;11.02;8.85;;;;;;;;;;5056169;28;20067;-75
2023/10/14 05:55:31;;;;;;;12.27;8.38;;;;;;;;;;5056320;28;20028;-75
2023/10/14 05:58:00;;;;;;;15.40;8.48;;;;;;;;;;5055905;28;20047;-75
2023/10/14 06:00:29;;;;;;;17.00;8.43;;;;;;;;;;5056061;28;20039;-75
2023/10/14 06:02:57;;;;;;;16.58;9.85;;;;;;;;;;5054750;28;20416;-75
2023/10/14 06:05:32;;;;;;;13.60;9.77;;;;;;;;;;5055599;28;20025;-75
2023/10/14 06:08:05;;;;;;;13.52;8.60;;;;;;;;;;5056122;28;20032;-74
2023/10/14 06:10:41;;;;;;;17.00;9.50;;;;;;;;;;5055759;28;20037;-75
2023/10/14 06:13:09;;;;;;;15.57;9.00;;;;;;;;;;5056105;28;20025;-75
2023/10/14 06:15:39;;;;;;;15.98;9.38;;;;;;;;;;5056020;28;20028;-75
2023/10/14 06:18:06;;;;;;;15.18;8.52;;;;;;;;;;5055864;28;20037;-75
2023/10/14 06:20:32;;;;;;;16.52;9.85;;;;;;;;;;5055458;28;20028;-74
2023/10/14 06:22:59;;;;;;;12.80;9.60;;;;;;;;;;5055577;28;20022;-75
2023/10/14 06:25:29;;;;;;;15.50;9.55;;;;;;;;;;5055610;28;20017;-75
2023/10/14 06:27:55;;;;;;;13.65;9.75;;;;;;;;;;5055252;28;20059;-75
2023/10/14 06:30:22;;;;;;;17.50;9.45;;;;;;;;;;5055611;28;20111;-75
2023/10/14 06:32:53;;;;;;;15.68;9.30;;;;;;;;;;5055718;28;20025;-75
2023/10/14 06:35:19;;;;;;;;;;;;;;;;;;5056092;28;20021;-75
2023/10/14 06:37:46;;;;;;;21.05;9.73;;;;;;;;;;5055602;28;19909;-75
2023/10/14 06:40:18;;;;;;;18.67;9.77;;;;;;;;;;5055558;28;20029;-75
2023/10/14 06:42:48;;;;;;;17.60;10.00;;;;;;;;;;5055469;28;20033;-75
2023/10/14 06:45:17;;;;;;;18.75;9.55;;;;;;;;;;5087668;28;20035;-75
2023/10/14 06:47:50;;;;;;;21.95;10.20;;;;;;;;;;5054775;28;20029;-75
2023/10/14 06:50:20;;;;;;;19.55;9.57;;;;;;;;;;5055084;28;20021;-75
2023/10/14 06:52:47;;;;;;;16.65;10.93;;;;;;;;;;5055085;28;20539;-75
2023/10/14 06:55:13;;;;;;;20.98;9.27;;;;;;;;;;5055037;28;20039;-75
2023/10/14 06:57:42;;;;;;;17.00;9.95;;;;;;;;;;5054848;28;20039;-74
2023/10/14 07:00:12;;;;;;;15.45;10.65;;;;;;;;;;5053987;28;20021;-75
2023/10/14 07:02:39;;;;;;;15.07;9.50;;;;;;;;;;5054628;28;20385;-75
2023/10/14 07:05:05;;;;;;;18.00;9.98;;;;;;;;;;5054888;28;20500;-75
2023/10/14 07:07:32;;;;;;;19.85;10.10;;;;;;;;;;5054693;28;20393;-74
2023/10/14 07:10:03;;;;;;;15.73;9.60;;;;;;;;;;5054697;28;20452;-75
2023/10/14 07:12:29;;;;;;;13.20;9.75;;;;;;;;;;5054821;28;20024;-75
2023/10/14 07:14:56;;;;;;;19.98;9.70;;;;;;;;;;5054648;28;20029;-75
2023/10/14 07:17:22;;;;;;;14.95;9.50;;;;;;;;;;5053109;28;20029;-75
2023/10/14 07:19:49;;;;;;;12.85;10.20;;;;;;;;;;5054584;28;20035;-75
2023/10/14 07:22:20;;;;;;;18.27;10.25;;;;;;;;;;5053455;28;20395;-75
2023/10/14 07:24:47;;;;;;;14.68;9.52;;;;;;;;;;5054498;28;20031;-75
2023/10/14 07:27:17;;;;;;;18.50;9.82;;;;;;;;;;5054247;28;20037;-75
2023/10/14 07:29:45;;;;;;;20.67;10.60;;;;;;;;;;5054627;28;20029;-75
2023/10/14 07:32:15;;;;;;;17.38;9.30;;;;;;;;;;5053889;28;20474;-75
2023/10/14 07:34:44;;;;;;;14.77;9.80;;;;;;;;;;5054587;28;20027;-75
2023/10/14 07:37:13;;;;;;;15.98;9.60;;;;;;;;;;5054454;28;20039;-75
2023/10/14 07:39:40;;;;;;;14.77;9.65;;;;;;;;;;5054298;28;20040;-75
2023/10/14 07:42:09;;;;;;;16.42;9.02;;;;;;;;;;5054216;28;20025;-75
2023/10/14 07:44:36;;;;;;;16.33;8.80;;;;;;;;;;5054091;28;20496;-75
2023/10/14 07:47:05;;;;;;;17.30;9.18;;;;;;;;;;5053912;28;20047;-74
2023/10/14 07:49:34;;;;;;;16.20;9.50;;;;;;;;;;5054219;28;20047;-75
2023/10/14 07:52:00;;;;;;;15.98;9.52;;;;;;;;;;5053871;28;20043;-75
2023/10/14 07:54:30;;;;;;;14.70;9.50;;;;;;;;;;5053858;28;20019;-75
2023/10/14 07:56:56;;;;;;;19.05;9.73;;;;;;;;;;5053790;28;20055;-75
2023/10/14 07:59:23;;;;;;;16.30;9.57;;;;;;;;;;5053844;28;20031;-75
2023/10/14 08:01:49;;;;;;;16.50;9.00;;;;;;;;;;5053455;28;20033;-75
2023/10/14 08:04:15;;;;;;;15.10;9.35;;;;;;;;;;5053913;28;20046;-75
2023/10/14 08:06:43;;;;;;;15.02;9.35;;;;;;;;;;5052365;28;20035;-75
2023/10/14 08:09:24;;;;;;;15.35;10.05;;;;;;;;;;5053676;28;20023;-75
2023/10/14 08:11:50;;;;;;;17.27;10.30;;;;;;;;;;5053562;28;20045;-75
2023/10/14 08:14:17;;;;;;;20.73;9.40;;;;;;;;;;5053798;28;20025;-75
2023/10/14 08:16:45;;;;;;;13.27;9.50;;;;;;;;;;5053096;28;20029;-75
2023/10/14 08:19:12;;;;;;;21.13;10.50;;;;;;;;;;5052118;28;20421;-75
2023/10/14 08:21:38;;;;;;;25.02;10.52;;;;;;;;;;5053445;28;20036;-75
2023/10/14 08:24:08;;;;;;;19.23;10.77;;;;;;;;;;5053372;28;20508;-75
2023/10/14 08:26:34;;;;;;;18.95;10.65;;;;;;;;;;5053057;28;20365;-75
2023/10/14 08:29:01;;;;;;;19.90;10.07;;;;;;;;;;5053084;28;20036;-75
2023/10/14 08:31:28;;;;;;;16.42;9.70;;;;;;;;;;5053062;28;20037;-75
2023/10/14 08:33:54;;;;;;;18.80;10.25;;;;;;;;;;5053230;28;20033;-75
2023/10/14 08:36:21;;;;;;;16.95;10.38;;;;;;;;;;5085290;28;20029;-75
2023/10/14 08:38:48;;;;;;;16.52;10.52;;;;;;;;;;5053057;28;20084;-75
2023/10/14 08:41:14;;;;;;;16.98;10.07;;;;;;;;;;5053393;28;20082;-75
2023/10/14 08:43:44;;;;;;;13.88;9.07;;;;;;;;;;5052575;28;20033;-75
2023/10/14 08:46:12;;;;;;;18.20;9.77;;;;;;;;;;5053218;28;20035;-75
2023/10/14 08:48:39;;;;;;;17.45;9.63;;;;;;;;;;5053273;28;20032;-75
2023/10/14 08:51:06;;;;;;;14.80;9.82;;;;;;;;;;5052901;28;20033;-75
2023/10/14 08:53:40;;;;;;;17.33;8.85;;;;;;;;;;5053101;28;20025;-75
2023/10/14 08:56:07;;;;;;;20.40;9.48;;;;;;;;;;5052480;28;20027;-75
2023/10/14 08:58:39;;;;;;;17.08;8.60;;;;;;;;;;5052535;28;20035;-74
2023/10/14 09:01:07;;;;;;;20.13;8.27;;;;;;;;;;5052958;28;20032;-75
2023/10/14 09:03:33;;;;;;;14.60;8.45;;;;;;;;;;5052650;28;20466;-75
2023/10/14 09:06:01;;;;;;;14.55;8.10;;;;;;;;;;5052684;28;20036;-75
2023/10/14 09:08:33;;;;;;;13.77;8.40;;;;;;;;;;5052539;28;20094;-75
2023/10/14 09:10:59;;;;;;;17.40;8.80;;;;;;;;;;5052761;28;20028;-75
2023/10/14 09:13:25;;;;;;;15.10;8.00;;;;;;;;;;5052297;28;20105;-75
2023/10/14 09:15:52;;;;;;;18.83;8.27;;;;;;;;;;5052802;28;20047;-75
2023/10/14 09:18:27;;;;;;;23.02;8.27;;;;;;;;;;5052857;28;20027;-75
2023/10/14 09:20:54;;;;;;;22.20;8.02;;;;;;;;;;5052610;28;20033;-75
2023/10/14 09:23:24;;;;;;;14.10;7.80;;;;;;;;;;5051952;28;20028;-75
2023/10/14 09:25:52;;;;;;;13.15;7.28;;;;;;;;;;5052265;28;20039;-75
2023/10/14 09:28:20;;;;;;;15.23;7.72;;;;;;;;;;5052129;28;20017;-75
2023/10/14 09:30:50;;;;;;;14.55;7.32;;;;;;;;;;5052138;28;20033;-75
2023/10/14 09:33:20;;;;;;;16.45;6.53;;;;;;;;;;5052475;28;20025;-75
2023/10/14 09:35:48;;;;;;;15.07;6.95;;;;;;;;;;5052301;28;20382;-75
2023/10/14 09:38:19;;;;;;;15.52;6.53;;;;;;;;;;5052226;28;20051;-75
2023/10/14 09:40:50;;;;;;;15.95;6.43;;;;;;;;;;5052498;28;20039;-75
2023/10/14 09:43:18;;;;;;;13.32;5.35;;;;;;;;;;5051983;28;20023;-75
2023/10/14 09:45:47;;;;;;;20.95;6.47;;;;;;;;;;5052216;28;20493;-75
2023/10/14 09:48:16;;;;;;;17.20;5.93;;;;;;;;;;5052493;28;20025;-75
2023/10/14 09:50:44;;;;;;;13.23;5.38;;;;;;;;;;5052178;28;20494;-75
2023/10/14 09:53:14;;;;;;;14.23;5.28;;;;;;;;;;5052237;28;20020;-75
2023/10/14 09:55:46;;;;;;;13.45;3.15;;;;;;;;;;5052093;28;20029;-75
2023/10/14 09:58:14;;;;;;;7.80;2.13;;;;;;;;;;5051668;28;20063;-75
2023/10/14 10:00:41;;;;;;;7.10;1.80;;;;;;;;;;5052100;28;20074;-75
2023/10/14 10:03:09;;;;;;;8.60;2.47;;;;;;;;;;5052132;28;20025;-75
2023/10/14 10:05:39;;;;;;;5.95;1.98;;;;;;;;;;5052227;28;20037;-75
2023/10/14 10:08:05;;;;;;;7.40;1.80;;;;;;;;;;5052275;28;20031;-75
2023/10/14 10:10:32;;;;;;;10.15;2.28;;;;;;;;;;5051597;28;20543;-75
2023/10/14 10:12:59;;;;;;;7.53;1.95;;;;;;;;;;5052058;28;20478;-75
2023/10/14 10:15:26;;;;;;;12.75;2.00;;;;;;;;;;5052028;28;20021;-75
2023/10/14 10:18:14;;;;;;;5.88;1.70;;;;;;;;;;5051971;28;20029;-75
2023/10/14 10:20:48;;;;;;;4.85;1.77;;;;;;;;;;5051878;28;20031;-75
2023/10/14 10:23:15;;;;;;;6.03;1.80;;;;;;;;;;5051931;28;20047;-75
2023/10/14 10:25:47;;;;;;;7.63;1.50;;;;;;;;;;5051366;28;20025;-75
2023/10/14 10:28:28;;;;;;;6.63;1.90;;;;;;;;;;5051708;28;20508;-75
2023/10/14 10:31:13;;;;;;;8.07;1.77;;;;;;;;;;5051823;28;20025;-75
2023/10/14 10:33:46;;;;;;;5.38;1.65;;;;;;;;;;5052145;28;20037;-75
2023/10/14 10:36:13;;;;;;;5.55;1.77;;;;;;;;;;5055361;28;20082;-76
2023/10/14 10:38:39;;;;;;;6.78;1.80;;;;;;;;;;5055670;28;20047;-75
2023/10/14 10:41:25;;;;;;;6.63;1.60;;;;;;;;;;5054975;28;20405;-75
2023/10/14 10:44:00;;;;;;;5.20;1.63;;;;;;;;;;5055571;28;20032;-75
2023/10/14 10:46:29;;;;;;;6.93;2.05;;;;;;;;;;5055154;28;20017;-75
2023/10/14 10:48:56;;;;;;;5.47;2.00;;;;;;;;;;5055165;28;20025;-75
2023/10/14 10:51:23;;;;;;;7.30;2.20;;;;;;;;;;5055161;28;20041;-76
2023/10/14 10:53:52;;;;;;;7.20;2.10;;;;;;;;;;5055198;28;20081;-75
2023/10/14 10:56:20;;;;;;;5.40;1.42;;;;;;;;;;5054748;28;20037;-76
2023/10/14 10:58:46;;;;;;;8.05;1.85;;;;;;;;;;5055004;28;20040;-75
2023/10/14 11:01:14;;;;;;;6.93;1.58;;;;;;;;;;5055240;28;20049;-76
2023/10/14 11:03:45;;;;;;;4.40;1.40;;;;;;;;;;5054895;28;20021;-75
2023/10/14 11:06:13;;;;;;;5.15;1.60;;;;;;;;;;5054803;28;20459;-75
2023/10/14 11:08:42;;;;;;;5.00;1.30;;;;;;;;;;5054456;28;20023;-75
2023/10/14 11:11:08;;;;;;;3.63;1.20;;;;;;;;;;5054768;28;20033;-75
2023/10/14 11:13:36;;;;;;;4.15;1.83;;;;;;;;;;5055025;28;20033;-75
2023/10/14 11:16:12;;;;;;;4.05;1.45;;;;;;;;;;5054895;28;20070;-75
2023/10/14 11:18:46;;;;;;;6.20;1.38;;;;;;;;;;5054632;28;20021;-75
2023/10/14 11:21:13;;;;;;;5.28;1.83;;;;;;;;;;5054735;28;20025;-75
2023/10/14 11:23:40;;;;;;;4.93;1.52;;;;;;;;;;5054268;28;20073;-75
2023/10/14 11:26:11;;;;;;;8.18;1.80;;;;;;;;;;5054177;28;20017;-75
2023/10/14 11:28:38;;;;;;;4.50;1.50;;;;;;;;;;5054639;28;20033;-76
2023/10/14 11:31:07;;;;;;;4.50;1.50;;;;;;;;;;5054247;28;20048;-75
2023/10/14 11:33:37;;;;;;;6.00;1.73;;;;;;;;;;5054612;28;20024;-76
2023/10/14 11:36:04;;;;;;;6.07;1.70;;;;;;;;;;5054516;28;20031;-75
2023/10/14 11:38:31;;;;;;;4.85;1.50;;;;;;;;;;5053910;28;20031;-76
2023/10/14 11:41:02;;;;;;;8.27;1.70;;;;;;;;;;5054205;28;20029;-75
2023/10/14 11:43:30;;;;;;;5.28;1.55;;;;;;;;;;5054078;28;20017;-75
2023/10/14 11:45:57;;;;;;;10.45;1.80;;;;;;;;;;5053896;28;20028;-75
2023/10/14 11:48:23;;;;;;;4.65;1.70;;;;;;;;;;5054022;28;20084;-76
2023/10/14 11:51:11;;;;;;;4.22;1.40;;;;;;;;;;5054041;28;20037;-75
2023/10/14 11:53:43;;;;;;;4.22;1.67;;;;;;;;;;5053660;28;20040;-75
2023/10/14 11:56:13;;;;;;;6.70;1.60;;;;;;;;;;5053844;28;20045;-75
2023/10/14 11:58:42;;;;;;;4.30;1.80;;;;;;;;;;5053873;28;20036;-75
2023/10/14 12:01:09;;;;;;;9.75;1.75;;;;;;;;;;5052970;28;20090;-75
2023/10/14 12:03:36;;;;;;;6.18;1.88;;;;;;;;;;5053739;28;20376;-75
2023/10/14 12:06:03;;;;;;;8.00;2.25;;;;;;;;;;5053908;28;20074;-75
2023/10/14 12:08:29;;;;;;;5.40;1.95;;;;;;;;;;5052138;28;20481;-75
2023/10/14 12:10:59;;;;;;;9.82;2.28;;;;;;;;;;5053463;28;20507;-75
2023/10/14 12:13:28;;;;;;;4.03;1.77;;;;;;;;;;5053654;28;20028;-75
2023/10/14 12:15:54;;;;;;;6.32;1.88;;;;;;;;;;5053496;28;20028;-75
2023/10/14 12:18:21;;;;;;;5.32;1.77;;;;;;;;;;5053499;28;20021;-75
2023/10/14 12:20:48;;;;;;;6.38;1.90;;;;;;;;;;5053437;28;20028;-76
2023/10/14 12:23:19;;;;;;;5.40;1.90;;;;;;;;;;5053094;28;20389;-75
2023/10/14 12:25:48;;;;;;;7.18;2.00;;;;;;;;;;5053496;28;20036;-76
2023/10/14 12:28:25;;;;;;;6.00;2.08;;;;;;;;;;5053258;28;20021;-76
2023/10/14 12:30:58;;;;;;;6.25;2.30;;;;;;;;;;5053380;28;20029;-75
2023/10/14 12:33:31;;;;;;;4.60;1.80;;;;;;;;;;5053168;28;20021;-75
2023/10/14 12:35:58;;;;;;;5.97;2.00;;;;;;;;;;5052868;28;20504;-75
2023/10/14 12:38:30;;;;;;;5.95;1.83;;;;;;;;;;5051919;28;20025;-76
2023/10/14 12:40:56;;;;;;;5.93;2.03;;;;;;;;;;5053085;28;20037;-76
2023/10/14 12:43:33;;;;;;;5.78;2.05;;;;;;;;;;5053067;28;20023;-75
2023/10/14 12:48:45;;;;;;;8.85;2.10;;;;;;;;;;5052944;28;20027;-75
2023/10/14 12:51:17;;;;;;;9.13;2.42;;;;;;;;;;5052483;28;20041;-75
2023/10/14 12:53:47;;;;;;;6.22;2.53;;;;;;;;;;5052931;28;20029;-75
2023/10/14 12:56:14;;;;;;;6.78;1.70;;;;;;;;;;5052223;28;20060;-75
2023/10/14 12:58:43;;;;;;;5.70;1.77;;;;;;;;;;5052778;28;20118;-75
2023/10/14 13:01:16;;;;;;;7.80;1.90;;;;;;;;;;5052809;28;20024;-75
2023/10/14 13:03:52;;;;;;;5.03;1.67;;;;;;;;;;5052764;28;20468;-76
2023/10/14 13:06:22;;;;;;;6.13;1.88;;;;;;;;;;5052332;28;20383;-76
2023/10/14 13:08:49;;;;;;;7.47;1.70;;;;;;;;;;5052943;28;20029;-76
2023/10/14 13:11:17;;;;;;;3.38;1.75;;;;;;;;;;5052668;28;20050;-76
2023/10/14 13:13:50;;;;;;;6.22;2.10;;;;;;;;;;5052872;28;20035;-75
2023/10/14 13:16:26;;;;;;;5.22;1.90;;;;;;;;;;5052622;28;20032;-76
2023/10/14 13:18:56;;;;;;;5.03;2.03;;;;;;;;;;5052265;28;20017;-75
2023/10/14 13:21:28;;;;;;;5.23;2.10;;;;;;;;;;5052692;28;20032;-75
2023/10/14 13:23:55;;;;;;;4.35;1.90;;;;;;;;;;5052600;28;20085;-76
2023/10/14 13:26:21;;;;;;;5.95;2.10;;;;;;;;;;5052530;28;20105;-75
2023/10/14 13:28:50;;;;;;;5.75;1.98;;;;;;;;;;5052360;28;20025;-76
2023/10/14 13:31:17;;;;;;;9.60;2.08;;;;;;;;;;5052518;28;20041;-76
2023/10/14 13:33:47;;;;;;;6.10;2.00;;;;;;;;;;5052265;28;20027;-75
2023/10/14 13:36:22;;;;;;;6.28;2.20;;;;;;;;;;5052387;28;20021;-76
2023/10/14 13:38:48;;;;;;;5.57;1.98;;;;;;;;;;5051273;28;20173;-76
2023/10/14 13:41:15;;;;;;;5.35;1.95;;;;;;;;;;5052407;28;20104;-76
2023/10/14 13:43:45;;;;;;;7.05;2.10;;;;;;;;;;5052635;28;20029;-76
2023/10/14 13:46:11;;;;;;;6.90;2.22;;;;;;;;;;5052227;28;20029;-76
2023/10/14 13:48:38;;;;;;;9.02;2.17;;;;;;;;;;5052035;28;20102;-76
2023/10/14 13:51:04;;;;;;;4.47;2.00;;;;;;;;;;5052109;28;20032;-75
2023/10/14 13:53:34;;;;;;;6.60;2.10;;;;;;;;;;5052147;28;20025;-76
2023/10/14 13:56:03;;;;;;;5.72;1.83;;;;;;;;;;5052179;28;20021;-75
2023/10/14 13:58:30;;;;;;;5.68;2.00;;;;;;;;;;5052298;28;20033;-76
2023/10/14 14:00:57;;;;;;;7.55;2.20;;;;;;;;;;5034623;28;20025;-75
2023/10/14 14:03:28;;;;;;;5.53;1.80;;;;;;;;;;5051802;28;20029;-75
2023/10/14 14:05:55;;;;;;;6.35;2.08;;;;;;;;;;5052341;28;20029;-76
2023/10/14 14:08:27;;;;;;;5.80;2.08;;;;;;;;;;5053794;28;20017;-75
2023/10/14 14:11:00;;;;;;;4.57;1.90;;;;;;;;;;5055826;28;20047;-75
2023/10/14 14:13:28;;;;;;;7.35;2.42;;;;;;;;;;5056170;28;20020;-75
2023/10/14 14:15:54;;;;;;;11.23;2.47;;;;;;;;;;5055849;28;20486;-75
2023/10/14 14:18:21;;;;;;;7.38;2.25;;;;;;;;;;5055467;28;20482;-76
2023/10/14 14:20:47;;;;;;;6.90;2.40;;;;;;;;;;5055583;28;20029;-76
2023/10/14 14:23:16;;;;;;;9.70;2.53;;;;;;;;;;5054570;28;20083;-76
2023/10/14 14:25:43;;;;;;;6.82;2.00;;;;;;;;;;5055429;28;20382;-76
2023/10/14 14:28:09;;;;;;;5.50;2.25;;;;;;;;;;5055466;28;20504;-75
2023/10/14 14:30:36;;;;;;;6.82;2.20;;;;;;;;;;5055453;28;20025;-76
2023/10/14 14:33:05;;;;;;;5.20;1.75;;;;;;;;;;5055111;28;20037;-76
2023/10/14 14:35:31;;;;;;;6.57;2.05;;;;;;;;;;5055657;28;20032;-76
2023/10/14 14:37:59;;;;;;;6.60;2.00;;;;;;;;;;5055442;28;20027;-75
2023/10/14 14:40:30;;;;;;;5.63;2.13;;;;;;;;;;5055627;28;20021;-75
2023/10/14 14:42:56;;;;;;;5.60;1.85;;;;;;;;;;5055504;28;20025;-76
2023/10/14 14:45:23;;;;;;;3.65;1.80;;;;;;;;;;5055174;28;20507;-75
2023/10/14 14:47:51;;;;;;;8.82;2.13;;;;;;;;;;5055084;28;20078;-76
2023/10/14 14:50:19;;;;;;;7.70;2.17;;;;;;;;;;5055438;28;20021;-75
2023/10/14 14:52:49;;;;;;;9.38;2.30;;;;;;;;;;5055365;28;20029;-75
2023/10/14 14:55:16;;;;;;;10.15;2.13;;;;;;;;;;5053826;28;20029;-75
2023/10/14 14:57:44;;;;;;;6.63;1.90;;;;;;;;;;5054841;28;20053;-76
2023/10/14 15:00:14;;;;;;;5.55;1.77;;;;;;;;;;5055084;28;20394;-75
2023/10/14 15:02:44;;;;;;;6.23;2.03;;;;;;;;;;5054908;28;20031;-75
2023/10/14 15:05:14;;;;;;;3.30;1.58;;;;;;;;;;5055187;28;20027;-75
2023/10/14 15:07:44;;;;;;;6.50;1.60;;;;;;;;;;5054837;28;20028;-75
2023/10/14 15:10:10;;;;;;;3.75;1.52;;;;;;;;;;5054808;28;20021;-75
2023/10/14 15:12:36;;;;;;;4.50;1.58;;;;;;;;;;5055023;28;20078;-75
2023/10/14 15:15:03;;;;;;;8.48;1.60;;;;;;;;;;5053086;28;20040;-75
2023/10/14 15:17:29;;;;;;;4.18;1.40;;;;;;;;;;5054937;28;20020;-75
2023/10/14 15:19:56;;;;;;;4.95;1.48;;;;;;;;;;5053789;28;20033;-75
2023/10/14 15:22:23;;;;;;;7.78;1.85;;;;;;;;;;5054551;28;20021;-75
2023/10/14 15:24:51;;;;;;;3.35;1.52;;;;;;;;;;5054870;28;20025;-75
2023/10/14 15:27:18;;;;;;;3.20;1.58;;;;;;;;;;5054329;28;20035;-75
2023/10/14 15:29:48;;;;;;;3.60;1.60;;;;;;;;;;5054137;28;20097;-75
2023/10/14 15:32:16;;;;;;;3.70;1.43;;;;;;;;;;5054335;28;20033;-75
2023/10/14 15:34:42;;;;;;;4.95;1.52;;;;;;;;;;5054433;28;20028;-75
2023/10/14 15:37:09;;;;;;;9.00;1.30;;;;;;;;;;5053023;28;20037;-75
2023/10/14 15:39:37;;;;;;;3.05;1.55;;;;;;;;;;5054261;28;20013;-75
2023/10/14 15:42:03;;;;;;;4.20;1.67;;;;;;;;;;5054529;28;20029;-75
2023/10/14 15:44:30;;;;;;;3.92;1.27;;;;;;;;;;5053907;28;20021;-75
2023/10/14 15:46:56;;;;;;;2.40;1.08;;;;;;;;;;5054278;28;20032;-75
2023/10/14 15:49:22;;;;;;;2.65;1.17;;;;;;;;;;5054327;28;20029;-75